sensor_id;sensor_type;location;lat;lon;timestamp;P1;durP1;ratioP1;P2;durP2;ratioP2
12484;SDS011;6307;46.804;11.580;2022-12-07T00:03:56;4.20;;;2.13;;
12484;SDS011;6307;46.804;11.580;2022-12-07T00:06:31;3.38;;;2.38;;
12484;SDS011;6307;46.804;11.580;2022-12-07T00:09:04;4.28;;;2.20;;
12484;SDS011;6307;46.804;11.580;2022-12-07T00:11:34;6.32;;;3.00;;
12484;SDS011;6307;46.804;11.580;2022-12-07T00:14:01;4.57;;;2.55;;
12484;SDS011;6307;46.804;11.580;2022-12-07T00:16:33;3.85;;;2.30;;
12484;SDS011;6307;46.804;11.580;2022-12-07T00:19:00;4.63;;;4.05;;
12484;SDS011;6307;46.804;11.580;2022-12-07T00:21:29;54.92;;;48.95;;
12484;SDS011;6307;46.804;11.580;2022-12-07T00:24:00;4.90;;;4.43;;
12484;SDS011;6307;46.804;11.580;2022-12-07T00:26:36;3.95;;;2.40;;
12484;SDS011;6307;46.804;11.580;2022-12-07T00:29:06;4.60;;;4.13;;
12484;SDS011;6307;46.804;11.580;2022-12-07T00:31:43;5.43;;;3.15;;
12484;SDS011;6307;46.804;11.580;2022-12-07T00:34:14;3.65;;;3.08;;
12484;SDS011;6307;46.804;11.580;2022-12-07T00:36:43;9.80;;;7.70;;
12484;SDS011;6307;46.804;11.580;2022-12-07T00:39:09;3.78;;;2.65;;
12484;SDS011;6307;46.804;11.580;2022-12-07T00:41:36;4.88;;;2.65;;
12484;SDS011;6307;46.804;11.580;2022-12-07T00:44:02;3.90;;;2.50;;
12484;SDS011;6307;46.804;11.580;2022-12-07T00:46:28;7.13;;;3.10;;
12484;SDS011;6307;46.804;11.580;2022-12-07T00:48:55;5.03;;;2.45;;
12484;SDS011;6307;46.804;11.580;2022-12-07T00:51:22;3.72;;;2.33;;
12484;SDS011;6307;46.804;11.580;2022-12-07T00:53:50;5.93;;;2.50;;
12484;SDS011;6307;46.804;11.580;2022-12-07T00:56:18;4.90;;;2.47;;
12484;SDS011;6307;46.804;11.580;2022-12-07T00:58:52;3.58;;;2.53;;
12484;SDS011;6307;46.804;11.580;2022-12-07T01:01:20;6.20;;;4.43;;
12484;SDS011;6307;46.804;11.580;2022-12-07T01:03:47;3.60;;;2.45;;
12484;SDS011;6307;46.804;11.580;2022-12-07T01:06:18;2.83;;;2.20;;
12484;SDS011;6307;46.804;11.580;2022-12-07T01:08:46;5.30;;;2.35;;
12484;SDS011;6307;46.804;11.580;2022-12-07T01:11:14;4.55;;;2.30;;
12484;SDS011;6307;46.804;11.580;2022-12-07T01:13:42;4.68;;;2.47;;
12484;SDS011;6307;46.804;11.580;2022-12-07T01:16:11;2.50;;;2.30;;
12484;SDS011;6307;46.804;11.580;2022-12-07T01:18:40;2.58;;;2.00;;
12484;SDS011;6307;46.804;11.580;2022-12-07T01:21:09;3.05;;;2.20;;
12484;SDS011;6307;46.804;11.580;2022-12-07T01:23:38;5.50;;;2.65;;
12484;SDS011;6307;46.804;11.580;2022-12-07T01:26:12;7.22;;;2.25;;
12484;SDS011;6307;46.804;11.580;2022-12-07T01:28:41;6.00;;;4.43;;
12484;SDS011;6307;46.804;11.580;2022-12-07T01:31:09;6.43;;;3.75;;
12484;SDS011;6307;46.804;11.580;2022-12-07T01:33:40;4.30;;;2.80;;
12484;SDS011;6307;46.804;11.580;2022-12-07T01:36:13;18.02;;;10.10;;
12484;SDS011;6307;46.804;11.580;2022-12-07T01:38:44;19.65;;;9.65;;
12484;SDS011;6307;46.804;11.580;2022-12-07T01:41:12;13.57;;;7.20;;
12484;SDS011;6307;46.804;11.580;2022-12-07T01:52:13;6.57;;;2.90;;
12484;SDS011;6307;46.804;11.580;2022-12-07T01:54:57;5.57;;;2.75;;
12484;SDS011;6307;46.804;11.580;2022-12-07T01:57:30;4.18;;;2.40;;
12484;SDS011;6307;46.804;11.580;2022-12-07T01:59:59;5.75;;;2.10;;
12484;SDS011;6307;46.804;11.580;2022-12-07T02:02:27;2.85;;;2.17;;
12484;SDS011;6307;46.804;11.580;2022-12-07T02:05:00;6.05;;;2.33;;
12484;SDS011;6307;46.804;11.580;2022-12-07T02:07:28;4.45;;;2.13;;
12484;SDS011;6307;46.804;11.580;2022-12-07T02:09:56;3.10;;;1.95;;
12484;SDS011;6307;46.804;11.580;2022-12-07T02:12:22;2.97;;;2.00;;
12484;SDS011;6307;46.804;11.580;2022-12-07T02:14:50;4.05;;;2.08;;
12484;SDS011;6307;46.804;11.580;2022-12-07T02:17:22;2.00;;;1.50;;
12484;SDS011;6307;46.804;11.580;2022-12-07T02:23:10;5.63;;;2.38;;
12484;SDS011;6307;46.804;11.580;2022-12-07T02:28:36;2.90;;;2.00;;
12484;SDS011;6307;46.804;11.580;2022-12-07T02:31:28;3.47;;;2.10;;
12484;SDS011;6307;46.804;11.580;2022-12-07T02:34:00;2.10;;;1.90;;
12484;SDS011;6307;46.804;11.580;2022-12-07T02:36:39;5.57;;;1.90;;
12484;SDS011;6307;46.804;11.580;2022-12-07T02:39:14;2.20;;;2.00;;
12484;SDS011;6307;46.804;11.580;2022-12-07T02:42:07;2.42;;;1.80;;
12484;SDS011;6307;46.804;11.580;2022-12-07T02:44:43;2.42;;;1.80;;
12484;SDS011;6307;46.804;11.580;2022-12-07T02:47:13;1.95;;;1.83;;
12484;SDS011;6307;46.804;11.580;2022-12-07T02:49:42;2.67;;;1.70;;
12484;SDS011;6307;46.804;11.580;2022-12-07T02:52:09;2.25;;;1.83;;
12484;SDS011;6307;46.804;11.580;2022-12-07T02:54:35;2.10;;;1.75;;
12484;SDS011;6307;46.804;11.580;2022-12-07T03:02:40;2.60;;;1.50;;
12484;SDS011;6307;46.804;11.580;2022-12-07T03:11:48;1.73;;;1.60;;
12484;SDS011;6307;46.804;11.580;2022-12-07T03:14:24;3.08;;;1.60;;
12484;SDS011;6307;46.804;11.580;2022-12-07T03:17:00;2.08;;;1.60;;
12484;SDS011;6307;46.804;11.580;2022-12-07T03:19:46;2.15;;;1.70;;
12484;SDS011;6307;46.804;11.580;2022-12-07T03:22:18;2.53;;;1.70;;
12484;SDS011;6307;46.804;11.580;2022-12-07T03:24:50;1.70;;;1.60;;
12484;SDS011;6307;46.804;11.580;2022-12-07T03:27:26;1.90;;;1.70;;
12484;SDS011;6307;46.804;11.580;2022-12-07T03:30:08;2.08;;;1.77;;
12484;SDS011;6307;46.804;11.580;2022-12-07T03:32:53;1.95;;;1.30;;
12484;SDS011;6307;46.804;11.580;2022-12-07T03:35:36;2.42;;;1.80;;
12484;SDS011;6307;46.804;11.580;2022-12-07T03:38:19;1.63;;;1.52;;
12484;SDS011;6307;46.804;11.580;2022-12-07T03:41:01;1.90;;;1.67;;
12484;SDS011;6307;46.804;11.580;2022-12-07T03:43:38;2.67;;;1.40;;
12484;SDS011;6307;46.804;11.580;2022-12-07T03:46:17;2.08;;;1.63;;
12484;SDS011;6307;46.804;11.580;2022-12-07T03:52:00;2.05;;;1.38;;
12484;SDS011;6307;46.804;11.580;2022-12-07T03:54:32;2.08;;;1.50;;
12484;SDS011;6307;46.804;11.580;2022-12-07T03:57:16;2.72;;;2.00;;
12484;SDS011;6307;46.804;11.580;2022-12-07T03:59:43;2.22;;;1.80;;
12484;SDS011;6307;46.804;11.580;2022-12-07T04:02:11;5.05;;;2.08;;
12484;SDS011;6307;46.804;11.580;2022-12-07T04:04:39;2.70;;;1.70;;
12484;SDS011;6307;46.804;11.580;2022-12-07T04:07:06;1.55;;;1.40;;
12484;SDS011;6307;46.804;11.580;2022-12-07T04:09:32;1.75;;;1.65;;
12484;SDS011;6307;46.804;11.580;2022-12-07T04:11:59;3.28;;;1.67;;
12484;SDS011;6307;46.804;11.580;2022-12-07T04:14:25;3.40;;;1.45;;
12484;SDS011;6307;46.804;11.580;2022-12-07T04:16:52;2.55;;;1.60;;
12484;SDS011;6307;46.804;11.580;2022-12-07T04:19:25;2.00;;;1.80;;
12484;SDS011;6307;46.804;11.580;2022-12-07T04:21:55;4.82;;;1.77;;
12484;SDS011;6307;46.804;11.580;2022-12-07T04:24:23;1.60;;;1.50;;
12484;SDS011;6307;46.804;11.580;2022-12-07T04:26:50;3.05;;;1.67;;
12484;SDS011;6307;46.804;11.580;2022-12-07T04:29:17;3.35;;;1.50;;
12484;SDS011;6307;46.804;11.580;2022-12-07T04:31:44;1.42;;;1.25;;
12484;SDS011;6307;46.804;11.580;2022-12-07T04:34:11;6.95;;;2.22;;
12484;SDS011;6307;46.804;11.580;2022-12-07T04:36:39;3.60;;;1.95;;
12484;SDS011;6307;46.804;11.580;2022-12-07T04:39:06;3.20;;;2.17;;
12484;SDS011;6307;46.804;11.580;2022-12-07T04:41:38;3.53;;;2.90;;
12484;SDS011;6307;46.804;11.580;2022-12-07T04:44:04;2.85;;;2.05;;
12484;SDS011;6307;46.804;11.580;2022-12-07T04:46:32;11.43;;;10.38;;
12484;SDS011;6307;46.804;11.580;2022-12-07T04:48:59;1.50;;;1.40;;
12484;SDS011;6307;46.804;11.580;2022-12-07T04:51:26;3.05;;;2.85;;
12484;SDS011;6307;46.804;11.580;2022-12-07T04:53:54;1.92;;;1.38;;
12484;SDS011;6307;46.804;11.580;2022-12-07T04:56:22;1.70;;;1.30;;
12484;SDS011;6307;46.804;11.580;2022-12-07T04:58:48;1.30;;;1.20;;
12484;SDS011;6307;46.804;11.580;2022-12-07T05:01:17;1.63;;;1.52;;
12484;SDS011;6307;46.804;11.580;2022-12-07T05:03:44;2.95;;;1.80;;
12484;SDS011;6307;46.804;11.580;2022-12-07T05:06:10;2.42;;;1.67;;
12484;SDS011;6307;46.804;11.580;2022-12-07T05:08:37;1.40;;;1.30;;
12484;SDS011;6307;46.804;11.580;2022-12-07T05:11:04;1.65;;;1.55;;
12484;SDS011;6307;46.804;11.580;2022-12-07T05:13:32;3.78;;;3.28;;
12484;SDS011;6307;46.804;11.580;2022-12-07T05:16:00;2.65;;;2.03;;
12484;SDS011;6307;46.804;11.580;2022-12-07T05:18:26;4.88;;;1.60;;
12484;SDS011;6307;46.804;11.580;2022-12-07T05:20:52;2.42;;;1.80;;
12484;SDS011;6307;46.804;11.580;2022-12-07T05:23:19;2.90;;;2.63;;
12484;SDS011;6307;46.804;11.580;2022-12-07T05:25:46;2.60;;;2.40;;
12484;SDS011;6307;46.804;11.580;2022-12-07T05:28:12;2.00;;;1.67;;
12484;SDS011;6307;46.804;11.580;2022-12-07T05:30:38;2.10;;;1.90;;
12484;SDS011;6307;46.804;11.580;2022-12-07T05:33:04;1.80;;;1.70;;
12484;SDS011;6307;46.804;11.580;2022-12-07T05:35:30;2.90;;;1.98;;
12484;SDS011;6307;46.804;11.580;2022-12-07T05:37:56;3.25;;;1.88;;
12484;SDS011;6307;46.804;11.580;2022-12-07T05:40:23;3.90;;;1.80;;
12484;SDS011;6307;46.804;11.580;2022-12-07T05:42:49;2.30;;;2.10;;
12484;SDS011;6307;46.804;11.580;2022-12-07T05:45:15;5.72;;;1.50;;
12484;SDS011;6307;46.804;11.580;2022-12-07T05:47:41;3.00;;;2.30;;
12484;SDS011;6307;46.804;11.580;2022-12-07T05:50:08;1.80;;;1.70;;
12484;SDS011;6307;46.804;11.580;2022-12-07T05:52:34;2.05;;;1.48;;
12484;SDS011;6307;46.804;11.580;2022-12-07T05:55:00;1.80;;;1.70;;
12484;SDS011;6307;46.804;11.580;2022-12-07T05:57:27;2.70;;;1.60;;
12484;SDS011;6307;46.804;11.580;2022-12-07T05:59:53;1.50;;;1.30;;
12484;SDS011;6307;46.804;11.580;2022-12-07T06:02:19;2.70;;;1.67;;
12484;SDS011;6307;46.804;11.580;2022-12-07T06:04:46;3.22;;;2.67;;
12484;SDS011;6307;46.804;11.580;2022-12-07T06:07:13;4.75;;;2.75;;
12484;SDS011;6307;46.804;11.580;2022-12-07T06:09:41;2.78;;;2.05;;
12484;SDS011;6307;46.804;11.580;2022-12-07T06:12:09;2.85;;;2.20;;
12484;SDS011;6307;46.804;11.580;2022-12-07T06:14:57;3.08;;;1.50;;
12484;SDS011;6307;46.804;11.580;2022-12-07T06:17:23;36.40;;;17.67;;
12484;SDS011;6307;46.804;11.580;2022-12-07T06:19:50;5.55;;;3.20;;
12484;SDS011;6307;46.804;11.580;2022-12-07T06:22:16;31.67;;;27.80;;
12484;SDS011;6307;46.804;11.580;2022-12-07T06:24:43;31.45;;;21.48;;
12484;SDS011;6307;46.804;11.580;2022-12-07T06:27:09;15.65;;;11.68;;
12484;SDS011;6307;46.804;11.580;2022-12-07T06:29:36;6.32;;;4.68;;
12484;SDS011;6307;46.804;11.580;2022-12-07T06:32:02;20.42;;;10.40;;
12484;SDS011;6307;46.804;11.580;2022-12-07T06:34:29;19.15;;;17.35;;
12484;SDS011;6307;46.804;11.580;2022-12-07T06:36:56;14.30;;;9.93;;
12484;SDS011;6307;46.804;11.580;2022-12-07T06:39:23;4.80;;;4.10;;
12484;SDS011;6307;46.804;11.580;2022-12-07T06:41:51;6.57;;;4.40;;
12484;SDS011;6307;46.804;11.580;2022-12-07T06:44:19;11.75;;;7.13;;
12484;SDS011;6307;46.804;11.580;2022-12-07T06:46:46;5.60;;;3.00;;
12484;SDS011;6307;46.804;11.580;2022-12-07T06:49:13;3.60;;;2.40;;
12484;SDS011;6307;46.804;11.580;2022-12-07T06:51:40;4.72;;;2.47;;
12484;SDS011;6307;46.804;11.580;2022-12-07T06:54:07;3.15;;;2.53;;
12484;SDS011;6307;46.804;11.580;2022-12-07T06:56:38;6.22;;;2.47;;
12484;SDS011;6307;46.804;11.580;2022-12-07T06:59:05;4.35;;;2.47;;
12484;SDS011;6307;46.804;11.580;2022-12-07T07:01:32;3.60;;;2.10;;
12484;SDS011;6307;46.804;11.580;2022-12-07T07:03:59;1.83;;;1.70;;
12484;SDS011;6307;46.804;11.580;2022-12-07T07:06:26;2.30;;;1.95;;
12484;SDS011;6307;46.804;11.580;2022-12-07T07:08:53;4.70;;;1.83;;
12484;SDS011;6307;46.804;11.580;2022-12-07T07:11:19;6.07;;;2.33;;
12484;SDS011;6307;46.804;11.580;2022-12-07T07:13:45;1.90;;;1.73;;
12484;SDS011;6307;46.804;11.580;2022-12-07T07:16:11;3.42;;;2.30;;
12484;SDS011;6307;46.804;11.580;2022-12-07T07:18:38;4.68;;;2.10;;
12484;SDS011;6307;46.804;11.580;2022-12-07T07:21:04;3.42;;;1.90;;
12484;SDS011;6307;46.804;11.580;2022-12-07T07:23:30;1.80;;;1.70;;
12484;SDS011;6307;46.804;11.580;2022-12-07T07:25:56;4.28;;;2.20;;
12484;SDS011;6307;46.804;11.580;2022-12-07T07:28:22;4.32;;;2.17;;
12484;SDS011;6307;46.804;11.580;2022-12-07T07:30:48;3.40;;;2.25;;
12484;SDS011;6307;46.804;11.580;2022-12-07T07:33:15;6.43;;;2.72;;
12484;SDS011;6307;46.804;11.580;2022-12-07T07:35:41;3.95;;;2.70;;
12484;SDS011;6307;46.804;11.580;2022-12-07T07:38:07;3.30;;;2.70;;
12484;SDS011;6307;46.804;11.580;2022-12-07T07:40:34;3.65;;;2.50;;
12484;SDS011;6307;46.804;11.580;2022-12-07T07:43:00;3.08;;;2.58;;
12484;SDS011;6307;46.804;11.580;2022-12-07T07:45:27;5.13;;;3.00;;
12484;SDS011;6307;46.804;11.580;2022-12-07T07:47:53;4.95;;;2.40;;
12484;SDS011;6307;46.804;11.580;2022-12-07T07:50:20;2.65;;;2.40;;
12484;SDS011;6307;46.804;11.580;2022-12-07T07:52:47;3.72;;;2.20;;
12484;SDS011;6307;46.804;11.580;2022-12-07T07:55:14;5.53;;;2.72;;
12484;SDS011;6307;46.804;11.580;2022-12-07T07:57:40;2.97;;;2.15;;
12484;SDS011;6307;46.804;11.580;2022-12-07T08:00:08;3.40;;;2.65;;
12484;SDS011;6307;46.804;11.580;2022-12-07T08:02:37;2.60;;;2.40;;
12484;SDS011;6307;46.804;11.580;2022-12-07T08:05:03;3.13;;;2.50;;
12484;SDS011;6307;46.804;11.580;2022-12-07T08:07:30;3.20;;;2.22;;
12484;SDS011;6307;46.804;11.580;2022-12-07T08:09:56;6.05;;;2.78;;
12484;SDS011;6307;46.804;11.580;2022-12-07T08:12:22;9.35;;;2.72;;
12484;SDS011;6307;46.804;11.580;2022-12-07T08:14:48;4.97;;;2.25;;
12484;SDS011;6307;46.804;11.580;2022-12-07T08:17:14;2.22;;;1.90;;
12484;SDS011;6307;46.804;11.580;2022-12-07T08:19:40;3.78;;;2.58;;
12484;SDS011;6307;46.804;11.580;2022-12-07T08:22:06;3.60;;;2.03;;
12484;SDS011;6307;46.804;11.580;2022-12-07T08:24:33;5.43;;;2.10;;
12484;SDS011;6307;46.804;11.580;2022-12-07T08:27:00;3.25;;;2.60;;
12484;SDS011;6307;46.804;11.580;2022-12-07T08:29:27;4.80;;;2.15;;
12484;SDS011;6307;46.804;11.580;2022-12-07T08:31:53;3.03;;;2.58;;
12484;SDS011;6307;46.804;11.580;2022-12-07T08:34:20;3.38;;;2.30;;
12484;SDS011;6307;46.804;11.580;2022-12-07T08:36:46;5.10;;;2.72;;
12484;SDS011;6307;46.804;11.580;2022-12-07T08:39:12;2.42;;;1.88;;
12484;SDS011;6307;46.804;11.580;2022-12-07T08:41:38;4.55;;;2.00;;
12484;SDS011;6307;46.804;11.580;2022-12-07T08:44:04;2.97;;;1.95;;
12484;SDS011;6307;46.804;11.580;2022-12-07T08:46:33;3.15;;;2.17;;
12484;SDS011;6307;46.804;11.580;2022-12-07T08:49:13;3.00;;;1.90;;
12484;SDS011;6307;46.804;11.580;2022-12-07T08:51:48;6.90;;;2.45;;
12484;SDS011;6307;46.804;11.580;2022-12-07T08:54:15;6.20;;;2.17;;
12484;SDS011;6307;46.804;11.580;2022-12-07T08:56:43;3.05;;;2.03;;
12484;SDS011;6307;46.804;11.580;2022-12-07T08:59:12;3.72;;;2.50;;
12484;SDS011;6307;46.804;11.580;2022-12-07T09:01:43;3.47;;;2.28;;
12484;SDS011;6307;46.804;11.580;2022-12-07T09:04:09;3.65;;;2.25;;
12484;SDS011;6307;46.804;11.580;2022-12-07T09:06:36;2.80;;;2.00;;
12484;SDS011;6307;46.804;11.580;2022-12-07T09:09:02;4.32;;;2.85;;
12484;SDS011;6307;46.804;11.580;2022-12-07T09:11:29;4.35;;;3.15;;
12484;SDS011;6307;46.804;11.580;2022-12-07T09:13:55;2.92;;;2.45;;
12484;SDS011;6307;46.804;11.580;2022-12-07T09:16:22;2.85;;;2.28;;
12484;SDS011;6307;46.804;11.580;2022-12-07T09:18:48;3.58;;;1.80;;
12484;SDS011;6307;46.804;11.580;2022-12-07T09:21:14;2.75;;;1.65;;
12484;SDS011;6307;46.804;11.580;2022-12-07T09:23:41;1.73;;;1.45;;
12484;SDS011;6307;46.804;11.580;2022-12-07T09:26:07;1.20;;;1.10;;
12484;SDS011;6307;46.804;11.580;2022-12-07T09:28:33;3.97;;;1.60;;
12484;SDS011;6307;46.804;11.580;2022-12-07T09:30:59;3.53;;;1.60;;
12484;SDS011;6307;46.804;11.580;2022-12-07T09:33:27;2.17;;;1.50;;
12484;SDS011;6307;46.804;11.580;2022-12-07T09:35:53;2.03;;;1.50;;
12484;SDS011;6307;46.804;11.580;2022-12-07T09:38:19;1.73;;;1.50;;
12484;SDS011;6307;46.804;11.580;2022-12-07T09:40:46;2.20;;;1.70;;
12484;SDS011;6307;46.804;11.580;2022-12-07T09:43:13;3.15;;;1.90;;
12484;SDS011;6307;46.804;11.580;2022-12-07T09:45:51;3.35;;;1.80;;
12484;SDS011;6307;46.804;11.580;2022-12-07T09:48:38;2.50;;;1.42;;
12484;SDS011;6307;46.804;11.580;2022-12-07T09:51:16;1.63;;;1.52;;
12484;SDS011;6307;46.804;11.580;2022-12-07T09:53:45;2.97;;;1.30;;
12484;SDS011;6307;46.804;11.580;2022-12-07T09:56:13;1.00;;;0.90;;
12484;SDS011;6307;46.804;11.580;2022-12-07T09:58:42;1.48;;;1.00;;
12484;SDS011;6307;46.804;11.580;2022-12-07T10:01:13;1.05;;;1.05;;
12484;SDS011;6307;46.804;11.580;2022-12-07T10:03:42;0.90;;;0.90;;
12484;SDS011;6307;46.804;11.580;2022-12-07T10:06:18;1.13;;;1.10;;
12484;SDS011;6307;46.804;11.580;2022-12-07T10:08:44;2.25;;;1.40;;
12484;SDS011;6307;46.804;11.580;2022-12-07T10:11:11;1.50;;;1.40;;
12484;SDS011;6307;46.804;11.580;2022-12-07T10:19:20;7.50;;;5.75;;
12484;SDS011;6307;46.804;11.580;2022-12-07T10:24:42;0.93;;;0.90;;
12484;SDS011;6307;46.804;11.580;2022-12-07T10:27:31;2.03;;;1.10;;
12484;SDS011;6307;46.804;11.580;2022-12-07T10:29:58;3.85;;;1.13;;
12484;SDS011;6307;46.804;11.580;2022-12-07T10:32:30;2.80;;;1.20;;
12484;SDS011;6307;46.804;11.580;2022-12-07T10:37:55;0.80;;;0.80;;
12484;SDS011;6307;46.804;11.580;2022-12-07T10:52:18;0.98;;;0.98;;
12484;SDS011;6307;46.804;11.580;2022-12-07T11:00:48;20.70;;;12.27;;
12484;SDS011;6307;46.804;11.580;2022-12-07T11:12:12;1.58;;;1.48;;
12484;SDS011;6307;46.804;11.580;2022-12-07T11:15:11;4.22;;;1.52;;
12484;SDS011;6307;46.804;11.580;2022-12-07T11:20:39;2.08;;;1.60;;
12484;SDS011;6307;46.804;11.580;2022-12-07T11:26:34;1.20;;;1.10;;
12484;SDS011;6307;46.804;11.580;2022-12-07T11:35:13;1.35;;;1.10;;
12484;SDS011;6307;46.804;11.580;2022-12-07T11:38:14;1.23;;;1.00;;
12484;SDS011;6307;46.804;11.580;2022-12-07T11:40:45;1.33;;;1.02;;
12484;SDS011;6307;46.804;11.580;2022-12-07T11:46:00;1.58;;;1.10;;
12484;SDS011;6307;46.804;11.580;2022-12-07T11:51:47;1.63;;;1.25;;
12484;SDS011;6307;46.804;11.580;2022-12-07T11:54:25;0.90;;;0.90;;
12484;SDS011;6307;46.804;11.580;2022-12-07T11:57:00;1.08;;;1.05;;
12484;SDS011;6307;46.804;11.580;2022-12-07T11:59:41;1.98;;;1.27;;
12484;SDS011;6307;46.804;11.580;2022-12-07T12:02:18;1.48;;;1.20;;
12484;SDS011;6307;46.804;11.580;2022-12-07T12:05:03;1.65;;;1.38;;
12484;SDS011;6307;46.804;11.580;2022-12-07T12:07:43;2.28;;;2.00;;
12484;SDS011;6307;46.804;11.580;2022-12-07T12:10:20;1.20;;;1.10;;
12484;SDS011;6307;46.804;11.580;2022-12-07T12:18:49;7.63;;;4.95;;
12484;SDS011;6307;46.804;11.580;2022-12-07T12:21:53;11.23;;;7.30;;
12484;SDS011;6307;46.804;11.580;2022-12-07T12:24:51;18.93;;;10.93;;
12484;SDS011;6307;46.804;11.580;2022-12-07T12:27:25;2.13;;;1.83;;
12484;SDS011;6307;46.804;11.580;2022-12-07T12:30:04;8.10;;;6.30;;
12484;SDS011;6307;46.804;11.580;2022-12-07T12:32:49;6.00;;;3.03;;
12484;SDS011;6307;46.804;11.580;2022-12-07T12:35:32;15.75;;;7.20;;
12484;SDS011;6307;46.804;11.580;2022-12-07T12:38:48;5.63;;;2.47;;
12484;SDS011;6307;46.804;11.580;2022-12-07T12:40:58;7.10;;;4.23;;
12484;SDS011;6307;46.804;11.580;2022-12-07T12:43:42;8.27;;;4.87;;
12484;SDS011;6307;46.804;11.580;2022-12-07T12:51:52;19.10;;;10.13;;
12484;SDS011;6307;46.804;11.580;2022-12-07T12:54:56;53.00;;;23.00;;
12484;SDS011;6307;46.804;11.580;2022-12-07T12:57:32;31.17;;;11.20;;
12484;SDS011;6307;46.804;11.580;2022-12-07T12:59:58;8.83;;;4.53;;
12484;SDS011;6307;46.804;11.580;2022-12-07T13:02:56;2.43;;;2.00;;
12484;SDS011;6307;46.804;11.580;2022-12-07T13:05:26;1.50;;;1.30;;
12484;SDS011;6307;46.804;11.580;2022-12-07T13:07:56;5.03;;;3.00;;
12484;SDS011;6307;46.804;11.580;2022-12-07T13:10:46;5.60;;;3.10;;
12484;SDS011;6307;46.804;11.580;2022-12-07T13:15:40;3.77;;;2.27;;
12484;SDS011;6307;46.804;11.580;2022-12-07T13:20:58;24.02;;;10.02;;
12484;SDS011;6307;46.804;11.580;2022-12-07T13:23:25;179.60;;;55.57;;
12484;SDS011;6307;46.804;11.580;2022-12-07T13:28:37;260.57;;;111.90;;
12484;SDS011;6307;46.804;11.580;2022-12-07T13:31:33;118.20;;;43.80;;
12484;SDS011;6307;46.804;11.580;2022-12-07T13:34:04;37.67;;;17.20;;
12484;SDS011;6307;46.804;11.580;2022-12-07T13:36:54;6.45;;;3.25;;
12484;SDS011;6307;46.804;11.580;2022-12-07T13:39:25;14.07;;;6.90;;
12484;SDS011;6307;46.804;11.580;2022-12-07T13:41:53;9.02;;;4.30;;
12484;SDS011;6307;46.804;11.580;2022-12-07T13:44:27;4.63;;;2.60;;
12484;SDS011;6307;46.804;11.580;2022-12-07T13:49:54;55.53;;;19.23;;
12484;SDS011;6307;46.804;11.580;2022-12-07T13:52:22;129.45;;;44.72;;
12484;SDS011;6307;46.804;11.580;2022-12-07T13:55:05;90.25;;;33.92;;
12484;SDS011;6307;46.804;11.580;2022-12-07T13:57:42;12.77;;;6.28;;
12484;SDS011;6307;46.804;11.580;2022-12-07T14:02:58;3.80;;;2.87;;
12484;SDS011;6307;46.804;11.580;2022-12-07T14:08:50;1.58;;;1.20;;
12484;SDS011;6307;46.804;11.580;2022-12-07T14:11:41;2.28;;;1.55;;
12484;SDS011;6307;46.804;11.580;2022-12-07T14:14:10;1.67;;;1.50;;
12484;SDS011;6307;46.804;11.580;2022-12-07T14:16:54;1.85;;;1.35;;
12484;SDS011;6307;46.804;11.580;2022-12-07T14:27:39;1.63;;;1.30;;
12484;SDS011;6307;46.804;11.580;2022-12-07T14:30:20;1.58;;;1.10;;
12484;SDS011;6307;46.804;11.580;2022-12-07T14:32:48;1.10;;;1.00;;
12484;SDS011;6307;46.804;11.580;2022-12-07T14:35:23;1.90;;;1.42;;
12484;SDS011;6307;46.804;11.580;2022-12-07T14:37:49;1.63;;;1.10;;
12484;SDS011;6307;46.804;11.580;2022-12-07T14:40:17;1.20;;;1.10;;
12484;SDS011;6307;46.804;11.580;2022-12-07T14:42:56;2.65;;;1.40;;
12484;SDS011;6307;46.804;11.580;2022-12-07T14:45:27;2.65;;;1.10;;
12484;SDS011;6307;46.804;11.580;2022-12-07T14:47:54;1.30;;;1.20;;
12484;SDS011;6307;46.804;11.580;2022-12-07T14:50:20;2.90;;;1.40;;
12484;SDS011;6307;46.804;11.580;2022-12-07T14:52:56;1.40;;;1.30;;
12484;SDS011;6307;46.804;11.580;2022-12-07T14:55:29;0.93;;;0.90;;
12484;SDS011;6307;46.804;11.580;2022-12-07T14:57:57;1.42;;;1.20;;
12484;SDS011;6307;46.804;11.580;2022-12-07T15:00:25;3.35;;;1.17;;
12484;SDS011;6307;46.804;11.580;2022-12-07T15:02:52;5.25;;;1.85;;
12484;SDS011;6307;46.804;11.580;2022-12-07T15:05:19;2.05;;;1.80;;
12484;SDS011;6307;46.804;11.580;2022-12-07T15:07:46;2.83;;;1.10;;
12484;SDS011;6307;46.804;11.580;2022-12-07T15:10:19;2.97;;;2.15;;
12484;SDS011;6307;46.804;11.580;2022-12-07T15:12:49;1.63;;;1.52;;
12484;SDS011;6307;46.804;11.580;2022-12-07T15:15:16;1.73;;;1.63;;
12484;SDS011;6307;46.804;11.580;2022-12-07T15:17:42;1.30;;;1.20;;
12484;SDS011;6307;46.804;11.580;2022-12-07T15:20:13;4.55;;;1.70;;
12484;SDS011;6307;46.804;11.580;2022-12-07T15:22:41;1.85;;;1.30;;
12484;SDS011;6307;46.804;11.580;2022-12-07T15:25:08;1.42;;;1.27;;
12484;SDS011;6307;46.804;11.580;2022-12-07T15:27:38;1.83;;;1.42;;
12484;SDS011;6307;46.804;11.580;2022-12-07T15:30:05;1.30;;;1.20;;
12484;SDS011;6307;46.804;11.580;2022-12-07T15:32:31;2.92;;;1.70;;
12484;SDS011;6307;46.804;11.580;2022-12-07T15:34:58;2.45;;;1.40;;
12484;SDS011;6307;46.804;11.580;2022-12-07T15:37:24;2.92;;;1.10;;
12484;SDS011;6307;46.804;11.580;2022-12-07T15:39:50;2.50;;;1.45;;
12484;SDS011;6307;46.804;11.580;2022-12-07T15:42:16;3.05;;;1.70;;
12484;SDS011;6307;46.804;11.580;2022-12-07T15:44:42;1.50;;;1.38;;
12484;SDS011;6307;46.804;11.580;2022-12-07T15:47:26;1.90;;;1.52;;
12484;SDS011;6307;46.804;11.580;2022-12-07T15:49:52;1.90;;;1.35;;
12484;SDS011;6307;46.804;11.580;2022-12-07T15:52:19;2.30;;;1.30;;
12484;SDS011;6307;46.804;11.580;2022-12-07T15:54:45;2.63;;;1.40;;
12484;SDS011;6307;46.804;11.580;2022-12-07T15:57:12;2.15;;;1.35;;
12484;SDS011;6307;46.804;11.580;2022-12-07T15:59:39;3.50;;;1.75;;
12484;SDS011;6307;46.804;11.580;2022-12-07T16:02:05;2.47;;;1.40;;
12484;SDS011;6307;46.804;11.580;2022-12-07T16:04:32;3.97;;;3.17;;
12484;SDS011;6307;46.804;11.580;2022-12-07T16:06:58;2.53;;;1.30;;
12484;SDS011;6307;46.804;11.580;2022-12-07T16:09:25;3.97;;;2.05;;
12484;SDS011;6307;46.804;11.580;2022-12-07T16:11:51;1.75;;;1.65;;
12484;SDS011;6307;46.804;11.580;2022-12-07T16:14:18;4.63;;;3.35;;
12484;SDS011;6307;46.804;11.580;2022-12-07T16:16:44;1.58;;;1.40;;
12484;SDS011;6307;46.804;11.580;2022-12-07T16:19:10;1.50;;;1.40;;
12484;SDS011;6307;46.804;11.580;2022-12-07T16:21:36;1.90;;;1.50;;
12484;SDS011;6307;46.804;11.580;2022-12-07T16:24:03;1.60;;;1.50;;
12484;SDS011;6307;46.804;11.580;2022-12-07T16:26:30;1.73;;;1.50;;
12484;SDS011;6307;46.804;11.580;2022-12-07T16:28:57;1.30;;;1.20;;
12484;SDS011;6307;46.804;11.580;2022-12-07T16:31:24;1.10;;;1.10;;
12484;SDS011;6307;46.804;11.580;2022-12-07T16:33:54;1.40;;;1.30;;
12484;SDS011;6307;46.804;11.580;2022-12-07T16:36:22;2.28;;;1.30;;
12484;SDS011;6307;46.804;11.580;2022-12-07T16:38:51;4.25;;;1.30;;
12484;SDS011;6307;46.804;11.580;2022-12-07T16:41:17;2.13;;;1.50;;
12484;SDS011;6307;46.804;11.580;2022-12-07T16:43:44;3.13;;;1.70;;
12484;SDS011;6307;46.804;11.580;2022-12-07T16:46:11;1.80;;;1.50;;
12484;SDS011;6307;46.804;11.580;2022-12-07T16:48:38;1.60;;;1.50;;
12484;SDS011;6307;46.804;11.580;2022-12-07T16:51:09;1.50;;;1.40;;
12484;SDS011;6307;46.804;11.580;2022-12-07T16:53:38;1.90;;;1.60;;
12484;SDS011;6307;46.804;11.580;2022-12-07T16:56:10;1.50;;;1.40;;
12484;SDS011;6307;46.804;11.580;2022-12-07T16:58:40;3.72;;;1.77;;
12484;SDS011;6307;46.804;11.580;2022-12-07T17:01:12;4.15;;;1.52;;
12484;SDS011;6307;46.804;11.580;2022-12-07T17:03:42;2.03;;;1.45;;
12484;SDS011;6307;46.804;11.580;2022-12-07T17:06:11;1.92;;;1.40;;
12484;SDS011;6307;46.804;11.580;2022-12-07T17:08:50;1.92;;;1.70;;
12484;SDS011;6307;46.804;11.580;2022-12-07T17:11:18;2.05;;;1.52;;